Monday, June 25, 2018, 9:42 AM EDT
Back to Local

KBOS, Boston Logan International

Location: Boston, MA, United States Lat: 42.367
Local Time: 9:42 AM EDT (13:42 GMT) Lon: -71.017
Time Zone: US/Eastern Elev: 19 ft

Show me the last for .
Show Decoded

2018-06-25 08:54 METAR KBOS 251254Z 33012G18KT 10SM SCT020 BKN039 22/16 A2986 RMK AO2 SLP111
                 T02170161 =
2018-06-25 07:54 METAR KBOS 251154Z 33010KT 10SM FEW014 FEW090 22/17 A2984 RMK AO2 SLP103 60023
                 70059 T02170167 10217 20194 53017 =
2018-06-25 06:54 METAR KBOS 251054Z 32007KT 10SM FEW012 FEW050 FEW110 20/17 A2982 RMK AO2 SLP097
                 T02000167 =
2018-06-25 05:54 METAR KBOS 250954Z 34007KT 10SM FEW012 BKN055 BKN200 19/17 A2980 RMK AO2 RAE27
                 SLP092 P0001 T01940167 =
2018-06-25 04:54 METAR KBOS 250854Z 34010KT 8SM -RA FEW012 OVC035 19/17 A2979 RMK AO2 RAE07B36
                 SLP086 P0000 60022 T01940172 51016 =
2018-06-25 04:37 METAR KBOS 250837Z 34013G17KT 8SM -RA FEW009 BKN023 OVC032 19/18 A2979 RMK AO2
                 RAE07B36 CIG 009 E P0000 T01940178 =
2018-06-25 04:03 METAR KBOS 250803Z 34009KT 8SM -RA BKN009 BKN014 OVC020 19/18 A2978 RMK AO2
                 P0000 T01940178 =
2018-06-25 03:54 METAR KBOS 250754Z COR 34008KT 4SM R04R/P6000FT -RA BR BKN009 OVC017 19/18 A2977
                 RMK AO2 RAE01B41 SLP081 P0000 T01940178 =
2018-06-25 02:54 METAR KBOS 250654Z 34008KT 1/2SM R04R/P6000FT -RA OVC007 19/18 A2976 RMK AO2 SFC
                 VIS 9 LTG DSNT NE AND E TSE19 SLP076 OCNL LTGIC DSNT NE P0022 T01940178 =
2018-06-25 02:31 METAR KBOS 250631Z 36009KT 1/2SM R04R/P6000FT +RA BR BKN006 BKN038 OVC090 20/18
                 A2975 RMK AO2 SFC VIS 2 1/2 LTG DSNT NE AND E TSE19 P0019 T02000183 =
2018-06-25 02:21 METAR KBOS 250621Z 36006KT 1/2SM R04R/P6000FT RA BR BKN004CB OVC011 20/18 A2975
                 RMK AO2 SFC VIS 4 LTG DSNT N AND E TSE19 CB NE MOV E OCNL LTGIC DSNT NE P0015
                 T02000183 =
2018-06-25 01:54 METAR KBOS 250554Z 04011KT 1/2SM R04R/P6000FT +TSRA BR OVC004CB 20/19 A2974 RMK
                 AO2 SFC VIS 1 1/4 LTG DSNT NE RAB50 TSE21B32 SLP071 FRQ LTGIC W-NW TS W MOV E
                 P0010 60021 T02000189 10228 20200 58008 =
2018-06-25 01:33 METAR KBOS 250533Z COR 03007KT 1/2SM R04R/P6000FT TS BR OVC007CB 20/19 A2975 RMK
                 AO2 SFC VIS 2 1/2 LTG DSNT W-N TSE21B32 FRQ LTGIC W-NW TS W MOV E T02000189 =
2018-06-25 00:54 METAR KBOS 250454Z 12003KT 1/2SM R04R/2200V2800FT BR OVC006 20/19 A2975 RMK AO2
                 SFC VIS 1 3/4 LTG DSNT W RAE36 SLP074 P0001 T02000189 402500150 =
2018-06-25 00:45 METAR KBOS 250445Z VRB03KT 1/2SM R04R/2600V5000FT BR OVC005 20/19 A2975 RMK AO2
                 SFC VIS 2 LTG DSNT W RAE36 P0001 T02000189 =
2018-06-25 00:25 METAR KBOS 250425Z 10003KT 1/2SM R04R/3000V4000FT -RA BR BKN003 OVC008 20/19
                 A2976 RMK AO2 SFC VIS 1 3/4 LTG DSNT NW P0001 T02000189 =
2018-06-25 00:12 METAR KBOS 250412Z 12005KT 1/2SM R04R/4500VP6000FT -RA BR SCT003 OVC009 20/19
                 A2977 RMK AO2 SFC VIS 2 P0000 T02000189 =
2018-06-24 23:54 METAR KBOS 250354Z 10004KT 2 1/2SM -RA BR OVC009 21/19 A2978 RMK AO2 TWR VIS 3
                 VIS 1 E RAB27 SLP083 P0001 T02060189 =
2018-06-24 23:33 METAR KBOS 250333Z 17004KT 5SM -RA BR OVC009 21/19 A2978 RMK AO2 RAB27 P0000
                 T02110194 =
2018-06-24 23:05 METAR KBOS 250305Z 06004KT 6SM BR FEW009 OVC030 22/19 A2977 RMK AO2 T02170194 =
2018-06-24 22:54 METAR KBOS 250254Z 00000KT 6SM BR FEW012 OVC030 22/20 A2977 RMK AO2 SLP079 60009
                 T02170200 58011 =
2018-06-24 22:28 METAR KBOS 250228Z 16004KT 7SM SCT012 BKN025 OVC047 22/20 A2978 RMK AO2
                 T02170200 =
2018-06-24 22:09 METAR KBOS 250209Z 00000KT 8SM BKN010 OVC027 22/20 A2979 RMK AO2 T02220200 =
2018-06-24 21:54 METAR KBOS 250154Z 22004KT 7SM SCT010 BKN027 OVC040 22/20 A2980 RMK AO2 RAE07
                 SLP089 P0000 T02220200 =
2018-06-24 21:46 METAR KBOS 250146Z COR 00000KT 7SM FEW009 BKN027 BKN039 OVC150 22/20 A2980 RMK
                 AO2 RAE07 P0000 T02170200 =
2018-06-24 20:54 METAR KBOS 250054Z 19004KT 6SM -RA BR FEW050 SCT060 BKN080 22/20 A2978 RMK AO2
                 CIG 065 E SLP083 P0009 T02220200 =
2018-06-24 20:16 METAR KBOS 250016Z 29005KT 3SM -RA FEW018 BKN075 OVC110 23/20 A2979 RMK AO2 VIS
                 2 E P0006 T02280200 =
2018-06-24 19:54 METAR KBOS 242354Z 24004KT 1 1/2SM +RA BR SCT024 BKN070 OVC080 22/20 A2980 RMK
                 AO2 SLP090 P0015 60015 T02220200 10239 20206 53010 =
2018-06-24 19:44 METAR KBOS 242344Z 23004KT 1SM R04R/P6000FT +RA SCT024 BKN070 OVC080 22/19 A2980
                 RMK AO2 P0011 T02220194 =
2018-06-24 19:32 METAR KBOS 242332Z 29007KT 2SM RA SCT023 BKN045 OVC090 23/19 A2980 RMK AO2 P0006
                 T02280194 =
2018-06-24 19:23 METAR KBOS 242323Z 00000KT 1 1/2SM +RA BR BKN065 BKN090 OVC110 21/19 A2979 RMK
                 AO2 P0004 T02110189 =
2018-06-24 19:17 METAR KBOS 242317Z 00000KT 2SM RA BR SCT065 SCT090 BKN110 21/19 A2979 RMK AO2
                 P0002 T02110189 =
2018-06-24 18:54 METAR KBOS 242254Z 09005KT 5SM -RA SCT036 SCT055 BKN075 OVC200 21/18 A2977 RMK
                 AO2 RAB38 SLP081 P0000 T02110183 =
2018-06-24 17:54 METAR KBOS 242154Z 06004KT 10SM FEW070 BKN080 BKN150 OVC220 22/18 A2977 RMK AO2
                 SLP081 T02220178 =
2018-06-24 16:54 METAR KBOS 242054Z 10009KT 10SM SCT095 BKN150 BKN220 OVC250 22/17 A2977 RMK AO2
                 SLP080 VIRGA SW T02220172 58007 =
2018-06-24 15:54 METAR KBOS 241954Z 08010KT 10SM SCT040 SCT060 BKN220 OVC250 21/17 A2979 RMK AO2
                 SLP086 T02110167 =
2018-06-24 14:54 METAR KBOS 241854Z 10011KT 10SM FEW041 BKN150 OVC250 24/17 A2979 RMK AO2 SLP087
                 T02390167 =
2018-06-24 13:54 METAR KBOS 241754Z 11010KT 10SM SCT026 BKN250 22/16 A2979 RMK AO2 SLP087
                 T02220161 10250 20167 58014 =
2018-06-24 13:08 METAR KBOS 241708Z 07007KT 10SM SCT026 BKN250 25/17 A2980 RMK AO2 T02500172 =
2018-06-24 12:54 METAR KBOS 241654Z 12005KT 10SM BKN027 23/17 A2981 RMK AO2 SLP093 T02330172 =
2018-06-24 11:54 METAR KBOS 241554Z 31004KT 10SM BKN021 23/16 A2982 RMK AO2 SLP097 T02330161 =
2018-06-24 10:54 METAR KBOS 241454Z VRB05KT 10SM BKN017 22/16 A2983 RMK AO2 SLP101 T02220161
                 53001 =
2018-06-24 10:40 METAR KBOS 241440Z VRB03KT 10SM BKN015 21/16 A2983 RMK AO2 T02110156 =
2018-06-24 09:54 METAR KBOS 241354Z 25006KT 10SM OVC012 20/16 A2982 RMK AO2 SLP099 T02000156 =

Support USWX by starting your Amazon purchase here.